createdAt,value
2018-05-16T00:00:24.244Z,88.37
2018-05-16T00:02:51.262Z,90.26
2018-05-16T00:05:18.272Z,90.72
2018-05-16T00:07:45.316Z,90.81
2018-05-16T00:10:12.459Z,90.74
2018-05-16T00:12:39.508Z,90.34
2018-05-16T00:15:06.642Z,91.01
2018-05-16T00:17:33.686Z,90.82
2018-05-16T00:20:00.766Z,90.55
2018-05-16T00:22:27.793Z,91.04
2018-05-16T00:24:54.816Z,90.80
2018-05-16T00:27:22.529Z,90.24
2018-05-16T00:29:49.667Z,91.42
2018-05-16T00:32:16.918Z,90.69
2018-05-16T00:34:44.167Z,91.03
2018-05-16T00:37:11.311Z,91.69
2018-05-16T00:39:39.409Z,91.61
2018-05-16T00:42:06.777Z,91.61
2018-05-16T00:44:33.883Z,90.83
2018-05-16T00:47:01.139Z,90.76
2018-05-16T00:49:28.777Z,91.24
2018-05-16T00:51:56.183Z,91.73
2018-05-16T00:54:23.259Z,91.77
2018-05-16T00:56:50.368Z,91.44
2018-05-16T00:59:17.948Z,91.76
2018-05-16T01:01:45.201Z,91.46
2018-05-16T01:04:12.318Z,92.33
2018-05-16T01:06:39.473Z,92.97
2018-05-16T01:09:06.483Z,93.07
2018-05-16T01:11:33.522Z,92.68
2018-05-16T01:14:00.550Z,92.10
2018-05-16T01:16:27.832Z,93.06
2018-05-16T01:18:54.872Z,93.86
2018-05-16T01:21:21.968Z,94.32
2018-05-16T01:23:49.008Z,93.73
2018-05-16T01:26:16.006Z,93.87
2018-05-16T01:28:43.728Z,94.37
2018-05-16T01:31:10.729Z,94.49
2018-05-16T01:33:37.738Z,94.62
2018-05-16T01:36:04.869Z,94.43
2018-05-16T01:38:31.850Z,94.44
2018-05-16T01:40:58.950Z,94.08
2018-05-16T01:43:25.967Z,94.51
2018-05-16T01:45:53.114Z,93.89
2018-05-16T01:48:20.208Z,93.07
2018-05-16T01:50:47.353Z,93.48
2018-05-16T01:53:14.366Z,93.14
2018-05-16T01:55:41.402Z,93.38
2018-05-16T01:58:08.452Z,93.52
2018-05-16T02:00:35.752Z,93.99
2018-05-16T02:03:02.894Z,94.15
2018-05-16T02:05:30.253Z,94.68
2018-05-16T02:07:57.317Z,94.80
2018-05-16T02:10:24.828Z,94.68
2018-05-16T02:12:52.017Z,94.52
2018-05-16T02:15:19.026Z,94.62
2018-05-16T02:17:46.021Z,95.17
2018-05-16T02:20:13.038Z,95.13
2018-05-16T02:22:40.264Z,95.19
2018-05-16T02:25:07.478Z,95.35
2018-05-16T02:27:34.954Z,95.39
2018-05-16T02:30:01.996Z,95.35
2018-05-16T02:32:29.062Z,95.33
2018-05-16T02:34:56.577Z,95.30
2018-05-16T02:37:23.720Z,95.40
2018-05-16T02:39:50.839Z,95.35
2018-05-16T02:42:18.783Z,95.60
2018-05-16T02:44:45.844Z,94.64
2018-05-16T02:47:12.875Z,93.99
2018-05-16T02:49:39.962Z,93.96
2018-05-16T02:52:07.202Z,93.80
2018-05-16T02:54:34.838Z,94.29
2018-05-16T02:57:02.390Z,94.28
2018-05-16T02:59:29.483Z,94.43
2018-05-16T03:04:47.852Z,94.61
2018-05-16T03:07:15.297Z,94.08
2018-05-16T03:09:42.317Z,93.54
2018-05-16T03:12:09.392Z,94.40
2018-05-16T03:14:36.776Z,94.89
2018-05-16T03:17:03.948Z,95.79
2018-05-16T03:19:30.937Z,96.22
2018-05-16T03:21:58.107Z,96.39
2018-05-16T03:24:25.184Z,96.32
2018-05-16T03:26:52.189Z,96.08
2018-05-16T03:29:19.247Z,96.23
2018-05-16T03:31:46.248Z,96.42
2018-05-16T03:34:13.330Z,95.78
2018-05-16T03:36:40.361Z,95.38
2018-05-16T03:39:07.624Z,95.86
2018-05-16T03:41:34.799Z,96.26
2018-05-16T03:44:01.958Z,96.33
2018-05-16T03:46:28.979Z,96.29
2018-05-16T03:48:56.922Z,96.54
2018-05-16T03:51:23.915Z,96.50
2018-05-16T03:53:50.898Z,96.45
2018-05-16T03:56:17.918Z,96.38
2018-05-16T03:58:50.934Z,96.66
2018-05-16T04:01:23.773Z,96.87
2018-05-16T04:03:56.747Z,97.03
2018-05-16T04:06:23.755Z,97.36
2018-05-16T04:08:50.964Z,97.35
2018-05-16T04:11:18.809Z,97.29
2018-05-16T04:13:45.917Z,96.97
2018-05-16T04:16:12.960Z,96.75
2018-05-16T04:18:39.959Z,96.81
2018-05-16T04:21:06.990Z,96.97
2018-05-16T04:23:34.003Z,97.19
2018-05-16T04:26:01.154Z,97.75
2018-05-16T04:28:28.153Z,97.76
2018-05-16T04:30:55.404Z,97.95
2018-05-16T04:33:23.214Z,98.13
2018-05-16T04:35:50.232Z,97.90
2018-05-16T04:38:17.468Z,97.25
2018-05-16T04:40:44.502Z,96.79
2018-05-16T04:43:11.614Z,96.79
2018-05-16T04:45:38.620Z,96.37
2018-05-16T04:48:05.682Z,96.24
2018-05-16T04:50:32.935Z,96.17
2018-05-16T04:53:00.052Z,96.05
2018-05-16T04:55:27.112Z,96.06
2018-05-16T04:57:54.129Z,96.03
2018-05-16T05:00:21.310Z,96.12
2018-05-16T05:02:48.353Z,96.38
2018-05-16T05:05:15.561Z,96.58
2018-05-16T05:07:42.823Z,96.70
2018-05-16T05:10:09.835Z,96.60
2018-05-16T05:12:36.853Z,96.42
2018-05-16T05:15:03.939Z,96.95
2018-05-16T05:17:30.963Z,96.71
2018-05-16T05:19:58.173Z,96.99
2018-05-16T05:22:25.394Z,96.60
2018-05-16T05:24:52.464Z,96.50
2018-05-16T05:27:19.462Z,96.73
2018-05-16T05:29:46.513Z,96.83
2018-05-16T05:32:14.124Z,96.96
2018-05-16T05:34:41.120Z,96.56
2018-05-16T05:37:08.135Z,95.96
2018-05-16T05:39:35.155Z,96.07
2018-05-16T05:42:02.763Z,96.40
2018-05-16T05:44:29.995Z,96.37
2018-05-16T05:46:57.023Z,95.43
2018-05-16T05:49:24.207Z,94.95
2018-05-16T05:51:51.449Z,94.45
2018-05-16T05:54:18.482Z,94.42
2018-05-16T05:56:46.414Z,93.86
2018-05-16T05:59:13.617Z,93.12
2018-05-16T06:01:40.613Z,92.90
2018-05-16T06:04:08.487Z,93.05
2018-05-16T06:06:35.589Z,93.18
2018-05-16T06:09:02.784Z,93.49
2018-05-16T06:11:29.833Z,93.77
2018-05-16T06:13:56.901Z,93.39
2018-05-16T06:16:23.909Z,93.14
2018-05-16T06:18:50.947Z,92.98
2018-05-16T06:21:18.392Z,93.29
2018-05-16T06:23:45.430Z,93.17
2018-05-16T06:26:13.588Z,92.69
2018-05-16T06:28:41.108Z,92.37
2018-05-16T06:31:08.122Z,94.36
2018-05-16T06:33:35.124Z,95.57
2018-05-16T06:36:02.539Z,95.97
2018-05-16T06:38:29.622Z,95.28
2018-05-16T06:40:56.607Z,96.00
2018-05-16T06:43:23.637Z,96.35
2018-05-16T06:45:50.858Z,96.62
2018-05-16T06:48:18.055Z,96.36
2018-05-16T06:50:45.114Z,96.05
2018-05-16T06:53:12.100Z,95.67
2018-05-16T06:55:39.120Z,95.26
2018-05-16T06:58:06.135Z,95.44
2018-05-16T07:00:33.174Z,95.52
2018-05-16T07:03:00.219Z,95.60
2018-05-16T07:05:27.269Z,94.99
2018-05-16T07:07:54.498Z,94.29
2018-05-16T07:10:21.509Z,94.21
2018-05-16T07:12:48.629Z,92.09
2018-05-16T07:15:15.763Z,92.32
2018-05-16T07:17:42.783Z,91.71
2018-05-16T07:20:10.570Z,91.18
2018-05-16T07:22:37.573Z,91.28
2018-05-16T07:25:05.689Z,91.83
2018-05-16T07:27:32.688Z,90.72
2018-05-16T07:29:59.899Z,90.65
2018-05-16T07:32:27.086Z,89.98
2018-05-16T07:34:54.080Z,89.82
2018-05-16T07:37:21.221Z,89.37
2018-05-16T07:39:48.231Z,88.13
2018-05-16T07:42:15.223Z,85.39
2018-05-16T07:44:42.243Z,85.45
2018-05-16T07:47:09.345Z,83.69
2018-05-16T07:49:36.603Z,83.19
2018-05-16T07:52:04.443Z,83.57
2018-05-16T07:54:31.444Z,82.43
2018-05-16T07:56:58.844Z,83.76
2018-05-16T07:59:25.952Z,84.07
2018-05-16T08:01:53.018Z,83.38
2018-05-16T08:04:20.170Z,84.51
2018-05-16T08:06:47.887Z,83.64
2018-05-16T08:09:14.996Z,84.37
2018-05-16T08:11:42.101Z,83.93
2018-05-16T08:14:09.858Z,84.92
2018-05-16T08:16:36.947Z,84.59
2018-05-16T08:19:04.190Z,85.79
2018-05-16T08:21:31.488Z,87.02
2018-05-16T08:23:58.705Z,87.35
2018-05-16T08:26:25.721Z,88.01
2018-05-16T08:28:52.853Z,89.02
2018-05-16T08:31:19.843Z,89.71
2018-05-16T08:33:46.912Z,89.48
2018-05-16T08:36:14.075Z,89.90
2018-05-16T08:38:41.315Z,88.55
2018-05-16T08:41:08.338Z,89.04
2018-05-16T08:43:35.416Z,87.93
2018-05-16T08:46:02.431Z,86.82
2018-05-16T08:48:29.489Z,87.42
2018-05-16T08:50:56.930Z,87.39
2018-05-16T08:53:24.055Z,87.74
2018-05-16T08:55:51.345Z,88.45
2018-05-16T08:58:18.406Z,87.59
2018-05-16T09:00:45.410Z,85.45
2018-05-16T09:03:12.564Z,86.34
2018-05-16T09:05:39.944Z,86.84
2018-05-16T09:08:06.974Z,88.22
2018-05-16T09:10:34.053Z,88.88
2018-05-16T09:13:01.141Z,89.16
2018-05-16T09:15:28.464Z,88.48
2018-05-16T09:17:55.644Z,89.33
2018-05-16T09:20:22.668Z,88.58
2018-05-16T09:22:49.761Z,88.58
2018-05-16T09:25:16.968Z,87.33
2018-05-16T09:27:45.276Z,87.20
2018-05-16T09:30:12.513Z,87.20
2018-05-16T09:32:39.462Z,87.14
2018-05-16T09:35:06.604Z,86.61
2018-05-16T09:37:33.577Z,85.95
2018-05-16T09:40:00.584Z,85.04
2018-05-16T09:42:27.620Z,84.82
2018-05-16T09:44:54.680Z,83.41
2018-05-16T09:47:21.954Z,81.23
2018-05-16T09:49:49.375Z,78.93
2018-05-16T09:52:16.549Z,79.37
2018-05-16T09:54:44.160Z,76.13
2018-05-16T09:57:11.430Z,73.25
2018-05-16T09:59:38.482Z,74.04
2018-05-16T10:02:05.550Z,73.18
2018-05-16T10:04:32.567Z,71.84
2018-05-16T10:07:00.311Z,72.72
2018-05-16T10:09:27.547Z,72.76
2018-05-16T10:11:54.557Z,72.14
2018-05-16T10:14:22.216Z,73.37
2018-05-16T10:16:49.500Z,72.31
2018-05-16T10:19:16.615Z,72.10
2018-05-16T10:21:43.841Z,72.65
2018-05-16T10:24:11.052Z,74.45
2018-05-16T10:26:38.335Z,74.03
2018-05-16T10:29:05.600Z,75.20
2018-05-16T10:31:32.852Z,72.87
2018-05-16T10:34:00.126Z,72.87
2018-05-16T10:36:27.136Z,74.85
2018-05-16T10:38:54.903Z,72.50
2018-05-16T10:41:22.190Z,70.82
2018-05-16T10:43:49.202Z,71.87
2018-05-16T10:46:16.211Z,71.41
2018-05-16T10:48:43.273Z,70.42
2018-05-16T10:51:10.381Z,68.75
2018-05-16T10:53:37.386Z,68.64
2018-05-16T10:56:04.420Z,67.57
2018-05-16T10:58:31.493Z,64.79
2018-05-16T11:00:58.557Z,67.38
2018-05-16T11:03:25.690Z,69.58
2018-05-16T11:05:52.820Z,71.99
2018-05-16T11:08:20.180Z,74.58
2018-05-16T11:10:48.192Z,75.82
2018-05-16T11:13:15.237Z,76.09
2018-05-16T11:15:42.281Z,77.42
2018-05-16T11:18:09.322Z,77.46
2018-05-16T11:20:36.346Z,77.61
2018-05-16T11:23:03.362Z,77.99
2018-05-16T11:25:30.895Z,78.04
2018-05-16T11:27:58.372Z,77.88
2018-05-16T11:30:25.428Z,73.92
2018-05-16T11:32:52.870Z,74.08
2018-05-16T11:35:19.901Z,73.72
2018-05-16T11:37:47.138Z,71.59
2018-05-16T11:40:14.781Z,71.25
2018-05-16T11:42:41.781Z,70.52
2018-05-16T11:45:09.157Z,69.47
2018-05-16T11:47:36.308Z,72.09
2018-05-16T11:50:03.345Z,69.78
2018-05-16T11:52:30.721Z,69.27
2018-05-16T11:54:57.997Z,68.50
2018-05-16T11:57:25.076Z,68.70
2018-05-16T11:59:52.503Z,66.37
2018-05-16T12:02:19.702Z,65.04
2018-05-16T12:04:47.783Z,64.89
2018-05-16T12:07:14.822Z,63.79
2018-05-16T12:09:41.835Z,61.82
2018-05-16T12:12:09.011Z,60.63
2018-05-16T12:14:36.119Z,60.93
2018-05-16T12:17:03.192Z,58.52
2018-05-16T12:19:30.220Z,58.07
2018-05-16T12:21:57.365Z,59.96
2018-05-16T12:24:24.511Z,60.41
2018-05-16T12:26:51.707Z,57.95
2018-05-16T12:29:19.065Z,57.63
2018-05-16T12:31:46.216Z,57.81
2018-05-16T12:34:13.461Z,55.93
2018-05-16T12:36:40.695Z,54.98
2018-05-16T12:39:07.711Z,56.43
2018-05-16T12:41:35.825Z,56.43
2018-05-16T12:44:02.857Z,55.94
2018-05-16T12:46:29.978Z,54.04
2018-05-16T12:48:57.251Z,53.07
2018-05-16T12:51:24.281Z,53.39
2018-05-16T12:53:51.378Z,49.21
2018-05-16T12:56:18.733Z,44.43
2018-05-16T12:58:45.798Z,44.85
2018-05-16T13:01:12.933Z,42.58
2018-05-16T13:03:40.415Z,41.48
2018-05-16T13:06:08.141Z,36.98
2018-05-16T13:08:36.053Z,40.28
2018-05-16T13:11:03.547Z,40.78
2018-05-16T13:13:32.955Z,43.96
2018-05-16T13:16:00.648Z,43.37
2018-05-16T13:18:28.141Z,43.72
2018-05-16T13:20:55.807Z,44.06
2018-05-16T13:23:24.128Z,44.43
2018-05-16T13:25:52.382Z,45.68
2018-05-16T13:28:19.851Z,45.58
2018-05-16T13:30:47.497Z,47.96
2018-05-16T13:33:15.214Z,49.62
2018-05-16T13:35:42.866Z,47.96
2018-05-16T13:38:10.339Z,46.15
2018-05-16T13:40:38.018Z,46.56
2018-05-16T13:43:05.532Z,47.88
2018-05-16T13:45:32.998Z,46.71
2018-05-16T13:48:00.623Z,47.37
2018-05-16T13:50:28.200Z,45.70
2018-05-16T13:52:55.682Z,47.16
2018-05-16T13:55:23.155Z,45.64
2018-05-16T13:57:50.810Z,46.98
2018-05-16T14:00:18.387Z,46.13
2018-05-16T14:02:46.085Z,45.31
2018-05-16T14:05:13.779Z,47.34
2018-05-16T14:07:42.537Z,46.35
2018-05-16T14:10:10.022Z,47.24
2018-05-16T14:12:37.643Z,50.38
2018-05-16T14:15:05.138Z,49.72
2018-05-16T14:17:32.759Z,51.51
2018-05-16T14:19:59.759Z,53.15
2018-05-16T14:22:26.816Z,54.80
2018-05-16T14:24:54.498Z,55.69
2018-05-16T14:27:22.346Z,57.57
2018-05-16T14:29:49.911Z,56.11
2018-05-16T14:32:17.572Z,55.95
2018-05-16T14:34:44.688Z,54.46
2018-05-16T14:37:12.169Z,53.91
2018-05-16T14:39:39.192Z,53.22
2018-05-16T14:42:06.355Z,53.88
2018-05-16T14:44:33.456Z,54.83
2018-05-16T14:47:00.478Z,55.11
2018-05-16T14:49:27.501Z,53.84
2018-05-16T14:51:54.532Z,54.29
2018-05-16T14:54:21.698Z,55.08
2018-05-16T14:56:48.695Z,55.81
2018-05-16T14:59:15.919Z,56.04
2018-05-16T15:01:43.423Z,56.68
2018-05-16T15:04:10.467Z,57.18
2018-05-16T15:06:39.508Z,57.44
2018-05-16T15:09:06.758Z,58.13
2018-05-16T15:11:33.842Z,57.73
2018-05-16T15:14:00.902Z,60.05
2018-05-16T15:16:28.076Z,59.10
2018-05-16T15:18:55.336Z,59.22
2018-05-16T15:21:22.635Z,59.56
2018-05-16T15:23:49.738Z,61.16
2018-05-16T15:26:16.768Z,62.72
2018-05-16T15:28:43.917Z,65.32
2018-05-16T15:31:10.969Z,66.08
2018-05-16T15:33:38.263Z,67.98
2018-05-16T15:36:05.942Z,68.45
2018-05-16T15:38:33.166Z,68.73
2018-05-16T15:41:00.988Z,69.05
2018-05-16T15:43:27.981Z,70.06
2018-05-16T15:45:55.004Z,73.49
2018-05-16T15:48:22.092Z,74.16
2018-05-16T15:50:49.138Z,75.79
2018-05-16T15:53:16.161Z,77.18
2018-05-16T15:55:43.247Z,77.35
2018-05-16T15:58:10.613Z,77.76
2018-05-16T16:00:37.782Z,79.52
2018-05-16T16:03:04.934Z,79.93
2018-05-16T16:05:31.986Z,78.96
2018-05-16T16:07:59.012Z,78.74
2018-05-16T16:10:26.190Z,79.37
2018-05-16T16:12:53.200Z,80.43
2018-05-16T16:15:20.349Z,79.30
2018-05-16T16:17:47.456Z,80.18
2018-05-16T16:20:14.556Z,79.21
2018-05-16T16:22:41.653Z,78.75
2018-05-16T16:25:08.667Z,78.84
2018-05-16T16:27:35.687Z,78.63
2018-05-16T16:30:03.283Z,78.41
2018-05-16T16:32:30.393Z,77.97
2018-05-16T16:34:57.428Z,78.88
2018-05-16T16:37:24.633Z,77.21
2018-05-16T16:39:51.662Z,78.36
2018-05-16T16:42:18.675Z,78.81
2018-05-16T16:44:45.904Z,78.43
2018-05-16T16:47:13.089Z,79.23
2018-05-16T16:49:40.370Z,78.58
2018-05-16T16:52:07.588Z,79.14
2018-05-16T16:54:34.669Z,79.96
2018-05-16T16:57:02.494Z,79.29
2018-05-16T16:59:29.531Z,79.72
2018-05-16T17:01:56.577Z,79.37
2018-05-16T17:04:23.728Z,79.39
2018-05-16T17:06:50.749Z,80.17
2018-05-16T17:09:17.745Z,80.65
2018-05-16T17:11:44.792Z,80.12
2018-05-16T17:14:11.804Z,81.33
2018-05-16T17:16:38.893Z,82.10
2018-05-16T17:19:06.494Z,80.68
2018-05-16T17:21:33.684Z,81.81
2018-05-16T17:24:01.763Z,80.82
2018-05-16T17:26:28.868Z,80.64
2018-05-16T17:28:55.913Z,81.71
2018-05-16T17:31:22.934Z,83.26
2018-05-16T17:33:49.948Z,83.50
2018-05-16T17:36:16.984Z,82.62
2018-05-16T17:38:44.559Z,81.43
2018-05-16T17:41:11.847Z,82.76
2018-05-16T17:43:38.859Z,82.89
2018-05-16T17:46:06.896Z,81.84
2018-05-16T17:48:33.863Z,81.68
2018-05-16T17:51:01.012Z,82.11
2018-05-16T17:53:28.249Z,82.71
2018-05-16T17:55:55.324Z,83.37
2018-05-16T17:58:22.339Z,84.43
2018-05-16T18:00:49.515Z,84.82
2018-05-16T18:03:16.708Z,84.72
2018-05-16T18:05:43.876Z,85.64
2018-05-16T18:08:10.894Z,86.89
2018-05-16T18:10:38.097Z,87.94
2018-05-16T18:16:04.589Z,88.50
2018-05-16T18:18:31.585Z,88.30
2018-05-16T18:20:59.264Z,88.33
2018-05-16T18:23:26.279Z,88.80
2018-05-16T18:25:53.315Z,89.20
2018-05-16T18:28:20.397Z,89.17
2018-05-16T18:30:47.407Z,90.54
2018-05-16T18:33:14.509Z,90.46
2018-05-16T18:35:42.237Z,90.38
2018-05-16T18:38:09.358Z,90.60
2018-05-16T18:40:37.210Z,90.80
2018-05-16T18:43:04.209Z,91.28
2018-05-16T18:45:31.232Z,91.84
2018-05-16T18:47:58.267Z,91.87
2018-05-16T18:50:25.313Z,91.95
2018-05-16T18:52:54.107Z,92.39
2018-05-16T18:55:21.219Z,92.89
2018-05-16T18:57:48.242Z,92.91
2018-05-16T19:00:15.342Z,92.90
2018-05-16T19:02:42.383Z,93.02
2018-05-16T19:05:09.389Z,93.08
2018-05-16T19:07:36.410Z,93.24
2018-05-16T19:10:03.637Z,93.05
2018-05-16T19:12:30.820Z,93.21
2018-05-16T19:14:58.270Z,93.72
2018-05-16T19:17:25.323Z,93.89
2018-05-16T19:19:52.525Z,93.97
2018-05-16T19:22:19.579Z,94.00
2018-05-16T19:24:46.814Z,94.19
2018-05-16T19:27:13.928Z,94.16
2018-05-16T19:29:40.994Z,94.34
2018-05-16T19:32:08.010Z,94.55
2018-05-16T19:34:35.144Z,94.51
2018-05-16T19:37:02.333Z,94.37
2018-05-16T19:39:29.410Z,94.90
2018-05-16T19:41:56.469Z,95.31
2018-05-16T19:44:24.052Z,95.40
2018-05-16T19:46:51.154Z,95.42
2018-05-16T19:49:18.217Z,95.54
2018-05-16T19:51:45.284Z,95.45
2018-05-16T19:54:12.365Z,95.26
2018-05-16T19:56:39.432Z,95.11
2018-05-16T19:59:06.678Z,95.17
2018-05-16T20:01:33.955Z,95.39
2018-05-16T20:04:01.199Z,95.67
2018-05-16T20:06:28.277Z,95.96
2018-05-16T20:08:55.504Z,96.00
2018-05-16T20:11:22.598Z,96.04
2018-05-16T20:13:49.660Z,95.91
2018-05-16T20:16:16.728Z,95.68
2018-05-16T20:18:43.934Z,95.82
2018-05-16T20:21:10.968Z,95.91
2018-05-16T20:23:38.084Z,95.98
2018-05-16T20:26:05.560Z,96.08
2018-05-16T20:28:32.882Z,95.74
2018-05-16T20:31:00.158Z,95.51
2018-05-16T20:33:27.170Z,95.54
2018-05-16T20:35:54.363Z,95.75
2018-05-16T20:38:21.370Z,95.99
2018-05-16T20:40:48.512Z,96.02
2018-05-16T20:43:15.714Z,96.09
2018-05-16T20:45:42.904Z,96.23
2018-05-16T20:48:10.076Z,96.55
2018-05-16T20:50:37.657Z,96.70
2018-05-16T20:53:04.614Z,96.82
2018-05-16T20:55:31.657Z,96.95
2018-05-16T20:57:58.694Z,96.88
2018-05-16T21:00:25.778Z,96.88
2018-05-16T21:02:52.850Z,97.18
2018-05-16T21:05:20.288Z,97.41
2018-05-16T21:07:47.452Z,97.60
2018-05-16T21:10:14.476Z,97.60
2018-05-16T21:12:41.547Z,97.74
2018-05-16T21:15:08.769Z,97.75
2018-05-16T21:17:36.730Z,97.67
2018-05-16T21:20:03.777Z,97.69
2018-05-16T21:22:30.903Z,97.75
2018-05-16T21:24:57.994Z,97.90
2018-05-16T21:27:25.162Z,98.03
2018-05-16T21:29:52.375Z,98.14
2018-05-16T21:32:19.408Z,98.10
2018-05-16T21:34:46.483Z,98.20
2018-05-16T21:37:13.565Z,97.86
2018-05-16T21:39:42.873Z,97.54
2018-05-16T21:42:10.416Z,97.61
2018-05-16T21:44:40.184Z,97.55
2018-05-16T21:47:10.415Z,97.50
2018-05-16T21:49:37.699Z,97.58
2018-05-16T21:52:06.584Z,97.74
2018-05-16T21:54:33.599Z,97.69
2018-05-16T21:57:00.723Z,97.34
2018-05-16T21:59:27.740Z,97.20
2018-05-16T22:01:54.744Z,97.24
2018-05-16T22:04:22.008Z,97.71
2018-05-16T22:06:49.068Z,98.03
2018-05-16T22:09:16.086Z,98.17
2018-05-16T22:11:43.539Z,97.99
2018-05-16T22:14:10.640Z,97.63
2018-05-16T22:16:37.684Z,97.62
2018-05-16T22:19:04.989Z,97.59
2018-05-16T22:21:32.034Z,97.72
2018-05-16T22:23:59.041Z,97.57
2018-05-16T22:26:26.025Z,97.53
2018-05-16T22:28:53.031Z,97.60
2018-05-16T22:31:26.015Z,97.93
2018-05-16T22:33:59.119Z,98.25
2018-05-16T22:36:31.840Z,98.23
2018-05-16T22:39:04.500Z,98.20
2018-05-16T22:41:37.604Z,98.16
2018-05-16T22:47:12.324Z,98.10
2018-05-16T22:49:39.445Z,98.22
2018-05-16T22:52:06.641Z,98.43
2018-05-16T22:54:33.804Z,98.47
2018-05-16T22:57:01.302Z,98.44
2018-05-16T22:59:28.599Z,98.40
2018-05-16T23:01:55.591Z,98.30
2018-05-16T23:04:23.161Z,98.12
2018-05-16T23:06:50.211Z,98.20
2018-05-16T23:09:17.275Z,98.13
2018-05-16T23:11:44.290Z,98.17
2018-05-16T23:14:11.540Z,98.15
2018-05-16T23:16:38.561Z,97.74
2018-05-16T23:19:05.850Z,97.62
2018-05-16T23:21:33.055Z,97.65
2018-05-16T23:24:00.429Z,97.61
2018-05-16T23:26:27.594Z,97.52
2018-05-16T23:28:54.711Z,97.62
2018-05-16T23:31:21.898Z,97.68
2018-05-16T23:33:48.959Z,97.84
2018-05-16T23:36:15.974Z,97.81
2018-05-16T23:38:42.961Z,97.70
2018-05-16T23:41:09.986Z,97.54
2018-05-16T23:43:37.615Z,97.54
2018-05-16T23:46:04.923Z,97.37
2018-05-16T23:48:32.005Z,97.22
2018-05-16T23:50:59.031Z,97.25
2018-05-16T23:53:26.648Z,97.40
2018-05-16T23:55:53.807Z,97.58
2018-05-16T23:58:21.075Z,97.80
